Weather at Ipota Airport

Public forecast

Using degrees Celsius for public forecast. Weather courtesy of forecast.io.

Closest aviation weather report (METAR) to Ipota Airport

Report is more than 6 hours old.

Closest report is Tanna Airport, 36.1 nm (66.9 km) S.

2024/07/20 03:00 (retrieved 16 hours ago)

NVVW 200300Z VRB02KT 9999 SCT020 BKN040 25/17 Q1014

Closest aviation forecast (TAF) to Ipota Airport

Closest forecast is Tanna Airport, 36.1 nm (66.9 km) S.

2024/07/20 18:01 (retrieved 50 minutes ago)

TAF NVVW 201700Z 2018/2118 VRB02KT 9999 SCT020